sensor_id;sensor_type;location;lat;lon;timestamp;pressure;altitude;pressure_sealevel;temperature;humidity
80500;BME280;69823;54.120;-4.710;2023-05-15T00:00:08;100481.64;;;22.05;27.45
80500;BME280;69823;54.120;-4.710;2023-05-15T00:02:33;100483.00;;;21.88;27.60
80500;BME280;69823;54.120;-4.710;2023-05-15T00:04:59;100483.47;;;22.00;27.48
80500;BME280;69823;54.120;-4.710;2023-05-15T00:07:25;100483.88;;;21.97;27.50
80500;BME280;69823;54.120;-4.710;2023-05-15T00:09:50;100486.32;;;22.00;27.46
80500;BME280;69823;54.120;-4.710;2023-05-15T00:12:17;100486.33;;;22.01;27.47
80500;BME280;69823;54.120;-4.710;2023-05-15T00:14:42;100484.64;;;22.01;27.41
80500;BME280;69823;54.120;-4.710;2023-05-15T00:17:08;100485.09;;;22.11;27.29
80500;BME280;69823;54.120;-4.710;2023-05-15T00:19:34;100483.85;;;22.00;27.33
80500;BME280;69823;54.120;-4.710;2023-05-15T00:22:00;100486.30;;;21.98;27.35
80500;BME280;69823;54.120;-4.710;2023-05-15T00:24:25;100485.36;;;21.92;27.36
80500;BME280;69823;54.120;-4.710;2023-05-15T00:26:51;100484.79;;;21.96;27.35
80500;BME280;69823;54.120;-4.710;2023-05-15T00:29:17;100483.79;;;22.00;27.32
80500;BME280;69823;54.120;-4.710;2023-05-15T00:31:43;100487.80;;;21.95;27.35
80500;BME280;69823;54.120;-4.710;2023-05-15T00:34:09;100481.96;;;21.92;27.38
80500;BME280;69823;54.120;-4.710;2023-05-15T00:36:35;100486.95;;;22.07;27.45
80500;BME280;69823;54.120;-4.710;2023-05-15T00:39:00;100484.38;;;22.02;27.27
80500;BME280;69823;54.120;-4.710;2023-05-15T00:41:27;100485.27;;;21.91;27.33
80500;BME280;69823;54.120;-4.710;2023-05-15T00:43:54;100487.71;;;22.02;27.45
80500;BME280;69823;54.120;-4.710;2023-05-15T00:46:19;100487.19;;;22.13;27.33
80500;BME280;69823;54.120;-4.710;2023-05-15T00:48:44;100488.35;;;22.17;27.30
80500;BME280;69823;54.120;-4.710;2023-05-15T00:51:10;100490.12;;;22.10;27.36
80500;BME280;69823;54.120;-4.710;2023-05-15T00:53:36;100492.08;;;22.03;27.20
80500;BME280;69823;54.120;-4.710;2023-05-15T00:56:02;100494.12;;;21.97;27.23
80500;BME280;69823;54.120;-4.710;2023-05-15T00:58:28;100491.55;;;21.93;27.28
80500;BME280;69823;54.120;-4.710;2023-05-15T01:00:53;100490.06;;;21.96;27.22
80500;BME280;69823;54.120;-4.710;2023-05-15T01:03:19;100488.86;;;21.74;27.40
80500;BME280;69823;54.120;-4.710;2023-05-15T01:05:45;100484.31;;;21.64;27.47
80500;BME280;69823;54.120;-4.710;2023-05-15T01:08:15;100481.15;;;22.24;27.36
80500;BME280;69823;54.120;-4.710;2023-05-15T01:10:38;100485.92;;;22.22;27.19
80500;BME280;69823;54.120;-4.710;2023-05-15T01:13:03;100482.10;;;21.87;27.20
80500;BME280;69823;54.120;-4.710;2023-05-15T01:15:28;100479.70;;;22.00;27.32
80500;BME280;69823;54.120;-4.710;2023-05-15T01:17:54;100481.32;;;21.66;27.40
80500;BME280;69823;54.120;-4.710;2023-05-15T01:20:21;100482.12;;;21.80;27.27
80500;BME280;69823;54.120;-4.710;2023-05-15T01:22:51;100477.62;;;21.73;27.32
80500;BME280;69823;54.120;-4.710;2023-05-15T01:27:39;100483.66;;;21.70;27.35
80500;BME280;69823;54.120;-4.710;2023-05-15T01:30:08;100480.67;;;21.63;27.43
80500;BME280;69823;54.120;-4.710;2023-05-15T01:32:36;100482.90;;;21.80;27.25
80500;BME280;69823;54.120;-4.710;2023-05-15T01:35:13;100481.73;;;22.02;27.47
80500;BME280;69823;54.120;-4.710;2023-05-15T01:37:24;100478.95;;;21.91;27.40
80500;BME280;69823;54.120;-4.710;2023-05-15T01:39:48;100479.67;;;21.70;27.33
80500;BME280;69823;54.120;-4.710;2023-05-15T01:42:15;100483.11;;;21.61;27.38
80500;BME280;69823;54.120;-4.710;2023-05-15T01:44:42;100488.97;;;21.85;27.38
80500;BME280;69823;54.120;-4.710;2023-05-15T01:47:11;100493.80;;;21.54;27.42
80500;BME280;69823;54.120;-4.710;2023-05-15T01:49:31;100489.57;;;21.62;27.36
80500;BME280;69823;54.120;-4.710;2023-05-15T01:51:58;100492.60;;;21.74;27.21
80500;BME280;69823;54.120;-4.710;2023-05-15T01:54:22;100496.17;;;22.18;27.26
80500;BME280;69823;54.120;-4.710;2023-05-15T01:56:48;100493.42;;;21.65;27.25
80500;BME280;69823;54.120;-4.710;2023-05-15T01:59:14;100495.59;;;22.16;27.23
80500;BME280;69823;54.120;-4.710;2023-05-15T02:01:40;100494.80;;;21.65;27.25
80500;BME280;69823;54.120;-4.710;2023-05-15T02:04:05;100493.20;;;22.10;27.28
80500;BME280;69823;54.120;-4.710;2023-05-15T02:06:32;100488.77;;;22.04;27.34
80500;BME280;69823;54.120;-4.710;2023-05-15T02:08:57;100496.55;;;21.72;27.39
80500;BME280;69823;54.120;-4.710;2023-05-15T02:11:23;100494.26;;;22.03;27.32
80500;BME280;69823;54.120;-4.710;2023-05-15T02:13:49;100496.48;;;22.07;27.31
80500;BME280;69823;54.120;-4.710;2023-05-15T02:16:14;100499.55;;;21.48;27.38
80500;BME280;69823;54.120;-4.710;2023-05-15T02:18:40;100496.13;;;21.91;27.38
80500;BME280;69823;54.120;-4.710;2023-05-15T02:21:07;100500.19;;;21.34;27.43
80500;BME280;69823;54.120;-4.710;2023-05-15T02:23:32;100500.74;;;21.97;27.32
80500;BME280;69823;54.120;-4.710;2023-05-15T02:26:07;100504.11;;;21.97;27.28
80500;BME280;69823;54.120;-4.710;2023-05-15T02:28:29;100509.53;;;22.02;27.24
80500;BME280;69823;54.120;-4.710;2023-05-15T02:30:54;100504.72;;;21.83;27.21
80500;BME280;69823;54.120;-4.710;2023-05-15T02:33:22;100505.19;;;22.06;27.23
80500;BME280;69823;54.120;-4.710;2023-05-15T02:35:47;100508.44;;;21.78;27.20
80500;BME280;69823;54.120;-4.710;2023-05-15T02:38:10;100506.12;;;21.50;27.24
80500;BME280;69823;54.120;-4.710;2023-05-15T02:40:35;100506.03;;;21.87;27.32
80500;BME280;69823;54.120;-4.710;2023-05-15T02:42:59;100506.40;;;21.55;27.38
80500;BME280;69823;54.120;-4.710;2023-05-15T02:45:25;100514.09;;;21.67;27.31
80500;BME280;69823;54.120;-4.710;2023-05-15T02:47:51;100510.64;;;22.14;27.21
80500;BME280;69823;54.120;-4.710;2023-05-15T02:50:17;100509.67;;;22.27;27.15
80500;BME280;69823;54.120;-4.710;2023-05-15T02:52:42;100510.37;;;22.29;27.16
80500;BME280;69823;54.120;-4.710;2023-05-15T02:55:09;100521.40;;;21.62;27.52
80500;BME280;69823;54.120;-4.710;2023-05-15T02:57:34;100519.55;;;21.41;27.41
80500;BME280;69823;54.120;-4.710;2023-05-15T03:00:00;100517.62;;;21.79;27.48
80500;BME280;69823;54.120;-4.710;2023-05-15T03:02:26;100523.46;;;21.91;27.37
80500;BME280;69823;54.120;-4.710;2023-05-15T03:04:51;100524.37;;;21.95;27.28
80500;BME280;69823;54.120;-4.710;2023-05-15T03:07:17;100525.56;;;21.47;27.25
80500;BME280;69823;54.120;-4.710;2023-05-15T03:09:43;100527.49;;;21.82;27.39
80500;BME280;69823;54.120;-4.710;2023-05-15T03:12:09;100524.41;;;21.76;27.45
80500;BME280;69823;54.120;-4.710;2023-05-15T03:14:35;100525.75;;;21.48;27.46
80500;BME280;69823;54.120;-4.710;2023-05-15T03:17:02;100525.85;;;21.12;27.55
80500;BME280;69823;54.120;-4.710;2023-05-15T03:19:26;100525.90;;;21.69;27.44
80500;BME280;69823;54.120;-4.710;2023-05-15T03:21:52;100527.58;;;21.75;27.38
80500;BME280;69823;54.120;-4.710;2023-05-15T03:24:18;100529.73;;;21.75;27.38
80500;BME280;69823;54.120;-4.710;2023-05-15T03:26:44;100530.02;;;21.53;27.35
80500;BME280;69823;54.120;-4.710;2023-05-15T03:29:10;100529.95;;;21.42;27.46
80500;BME280;69823;54.120;-4.710;2023-05-15T03:31:36;100528.35;;;21.27;27.35
80500;BME280;69823;54.120;-4.710;2023-05-15T03:34:02;100531.53;;;21.40;27.45
80500;BME280;69823;54.120;-4.710;2023-05-15T03:36:28;100528.41;;;21.25;27.34
80500;BME280;69823;54.120;-4.710;2023-05-15T03:38:53;100526.10;;;21.24;27.32
80500;BME280;69823;54.120;-4.710;2023-05-15T03:41:19;100525.92;;;21.67;27.32
80500;BME280;69823;54.120;-4.710;2023-05-15T03:43:45;100527.52;;;21.86;27.11
80500;BME280;69823;54.120;-4.710;2023-05-15T03:46:11;100524.20;;;21.73;27.25
80500;BME280;69823;54.120;-4.710;2023-05-15T03:48:37;100528.87;;;21.34;27.37
80500;BME280;69823;54.120;-4.710;2023-05-15T03:51:03;100531.40;;;21.53;27.21
80500;BME280;69823;54.120;-4.710;2023-05-15T03:53:28;100532.70;;;21.43;27.29
80500;BME280;69823;54.120;-4.710;2023-05-15T03:55:55;100532.91;;;21.76;27.20
80500;BME280;69823;54.120;-4.710;2023-05-15T03:58:20;100531.56;;;21.82;27.36
80500;BME280;69823;54.120;-4.710;2023-05-15T04:00:46;100529.52;;;21.72;27.21
80500;BME280;69823;54.120;-4.710;2023-05-15T04:03:13;100531.53;;;21.57;27.14
80500;BME280;69823;54.120;-4.710;2023-05-15T04:05:38;100532.98;;;21.39;27.06
80500;BME280;69823;54.120;-4.710;2023-05-15T04:08:04;100537.17;;;21.60;27.08
80500;BME280;69823;54.120;-4.710;2023-05-15T04:10:29;100537.86;;;21.66;27.44
80500;BME280;69823;54.120;-4.710;2023-05-15T04:12:55;100533.63;;;21.57;27.44
80500;BME280;69823;54.120;-4.710;2023-05-15T04:15:22;100534.78;;;21.87;27.15
80500;BME280;69823;54.120;-4.710;2023-05-15T04:17:49;100536.89;;;21.92;27.09
80500;BME280;69823;54.120;-4.710;2023-05-15T04:20:14;100536.87;;;21.93;27.08
80500;BME280;69823;54.120;-4.710;2023-05-15T04:22:39;100543.10;;;21.96;27.09
80500;BME280;69823;54.120;-4.710;2023-05-15T04:25:05;100538.54;;;21.91;27.18
80500;BME280;69823;54.120;-4.710;2023-05-15T04:27:30;100542.32;;;21.90;27.17
80500;BME280;69823;54.120;-4.710;2023-05-15T04:29:56;100543.54;;;21.68;27.18
80500;BME280;69823;54.120;-4.710;2023-05-15T04:32:22;100542.28;;;21.84;27.24
80500;BME280;69823;54.120;-4.710;2023-05-15T04:34:48;100545.35;;;21.88;27.22
80500;BME280;69823;54.120;-4.710;2023-05-15T04:37:14;100548.98;;;21.81;27.25
80500;BME280;69823;54.120;-4.710;2023-05-15T04:39:40;100551.59;;;21.74;27.31
80500;BME280;69823;54.120;-4.710;2023-05-15T04:42:06;100555.02;;;21.81;27.20
80500;BME280;69823;54.120;-4.710;2023-05-15T04:44:31;100554.91;;;21.87;27.18
80500;BME280;69823;54.120;-4.710;2023-05-15T04:46:57;100555.12;;;21.81;27.24
80500;BME280;69823;54.120;-4.710;2023-05-15T04:49:23;100555.98;;;21.76;27.31
80500;BME280;69823;54.120;-4.710;2023-05-15T04:51:48;100550.81;;;21.69;27.34
80500;BME280;69823;54.120;-4.710;2023-05-15T04:54:13;100553.58;;;21.81;27.22
80500;BME280;69823;54.120;-4.710;2023-05-15T04:56:38;100552.48;;;21.57;27.24
80500;BME280;69823;54.120;-4.710;2023-05-15T04:59:03;100551.95;;;21.72;27.32
80500;BME280;69823;54.120;-4.710;2023-05-15T05:01:28;100551.34;;;21.78;27.27
80500;BME280;69823;54.120;-4.710;2023-05-15T05:03:53;100555.77;;;21.73;27.34
80500;BME280;69823;54.120;-4.710;2023-05-15T05:06:19;100554.73;;;21.49;27.34
80500;BME280;69823;54.120;-4.710;2023-05-15T05:08:45;100561.17;;;21.71;27.35
80500;BME280;69823;54.120;-4.710;2023-05-15T05:11:11;100557.82;;;21.67;27.36
80500;BME280;69823;54.120;-4.710;2023-05-15T05:13:37;100566.75;;;21.65;27.38
80500;BME280;69823;54.120;-4.710;2023-05-15T05:16:02;100561.42;;;21.48;27.34
80500;BME280;69823;54.120;-4.710;2023-05-15T05:18:29;100564.06;;;21.69;27.37
80500;BME280;69823;54.120;-4.710;2023-05-15T05:20:58;100564.63;;;21.67;27.37
80500;BME280;69823;54.120;-4.710;2023-05-15T05:23:19;100563.11;;;21.67;27.37
80500;BME280;69823;54.120;-4.710;2023-05-15T05:25:45;100561.60;;;21.61;27.44
80500;BME280;69823;54.120;-4.710;2023-05-15T05:28:11;100559.07;;;21.61;27.42
80500;BME280;69823;54.120;-4.710;2023-05-15T05:30:37;100558.54;;;21.55;27.46
80500;BME280;69823;54.120;-4.710;2023-05-15T05:33:02;100557.62;;;21.92;27.33
80500;BME280;69823;54.120;-4.710;2023-05-15T05:35:28;100561.55;;;21.44;27.32
80500;BME280;69823;54.120;-4.710;2023-05-15T05:37:53;100564.96;;;21.39;27.39
80500;BME280;69823;54.120;-4.710;2023-05-15T05:40:18;100567.31;;;21.50;27.27
80500;BME280;69823;54.120;-4.710;2023-05-15T05:42:44;100571.34;;;21.97;27.25
80500;BME280;69823;54.120;-4.710;2023-05-15T05:45:10;100572.55;;;21.80;27.18
80500;BME280;69823;54.120;-4.710;2023-05-15T05:47:35;100578.84;;;21.78;27.23
80500;BME280;69823;54.120;-4.710;2023-05-15T05:50:01;100575.94;;;21.70;27.31
80500;BME280;69823;54.120;-4.710;2023-05-15T05:52:27;100573.55;;;21.66;27.35
80500;BME280;69823;54.120;-4.710;2023-05-15T05:54:53;100578.89;;;21.60;27.40
80500;BME280;69823;54.120;-4.710;2023-05-15T05:57:19;100579.99;;;21.67;27.34
80500;BME280;69823;54.120;-4.710;2023-05-15T05:59:44;100579.57;;;21.72;27.28
80500;BME280;69823;54.120;-4.710;2023-05-15T06:02:10;100580.81;;;21.52;27.23
80500;BME280;69823;54.120;-4.710;2023-05-15T06:04:36;100587.47;;;21.63;27.35
80500;BME280;69823;54.120;-4.710;2023-05-15T06:07:02;100588.49;;;21.39;27.36
80500;BME280;69823;54.120;-4.710;2023-05-15T06:09:28;100592.30;;;21.67;27.35
80500;BME280;69823;54.120;-4.710;2023-05-15T06:11:54;100595.37;;;21.58;27.42
80500;BME280;69823;54.120;-4.710;2023-05-15T06:14:20;100593.33;;;21.68;27.28
80500;BME280;69823;54.120;-4.710;2023-05-15T06:16:45;100594.43;;;21.70;27.54
80500;BME280;69823;54.120;-4.710;2023-05-15T06:19:11;100600.72;;;21.43;28.15
80500;BME280;69823;54.120;-4.710;2023-05-15T06:21:37;100594.37;;;21.59;27.82
80500;BME280;69823;54.120;-4.710;2023-05-15T06:24:03;100601.33;;;21.61;27.92
80500;BME280;69823;54.120;-4.710;2023-05-15T06:26:29;100604.15;;;21.06;28.25
80500;BME280;69823;54.120;-4.710;2023-05-15T06:28:55;100600.46;;;21.20;28.45
80500;BME280;69823;54.120;-4.710;2023-05-15T06:31:21;100604.07;;;21.55;28.07
80500;BME280;69823;54.120;-4.710;2023-05-15T06:33:46;100602.42;;;21.20;28.30
80500;BME280;69823;54.120;-4.710;2023-05-15T06:36:12;100599.70;;;21.75;28.24
80500;BME280;69823;54.120;-4.710;2023-05-15T06:38:38;100602.26;;;21.76;28.33
80500;BME280;69823;54.120;-4.710;2023-05-15T06:41:04;100601.19;;;21.36;28.45
80500;BME280;69823;54.120;-4.710;2023-05-15T06:43:30;100605.13;;;21.80;28.29
80500;BME280;69823;54.120;-4.710;2023-05-15T06:45:56;100603.93;;;21.61;28.20
80500;BME280;69823;54.120;-4.710;2023-05-15T06:48:22;100601.62;;;21.54;28.31
80500;BME280;69823;54.120;-4.710;2023-05-15T06:50:47;100600.37;;;21.38;28.52
80500;BME280;69823;54.120;-4.710;2023-05-15T06:53:13;100600.34;;;21.55;28.62
80500;BME280;69823;54.120;-4.710;2023-05-15T06:55:39;100598.18;;;21.67;28.46
80500;BME280;69823;54.120;-4.710;2023-05-15T06:58:05;100593.66;;;21.45;28.47
80500;BME280;69823;54.120;-4.710;2023-05-15T07:00:31;100595.50;;;21.46;28.45
80500;BME280;69823;54.120;-4.710;2023-05-15T07:02:57;100595.70;;;21.77;28.38
80500;BME280;69823;54.120;-4.710;2023-05-15T07:05:23;100598.09;;;21.83;28.29
80500;BME280;69823;54.120;-4.710;2023-05-15T07:07:48;100600.53;;;21.81;28.36
80500;BME280;69823;54.120;-4.710;2023-05-15T07:10:14;100603.84;;;21.45;28.48
80500;BME280;69823;54.120;-4.710;2023-05-15T07:12:40;100606.72;;;21.21;28.75
80500;BME280;69823;54.120;-4.710;2023-05-15T07:15:07;100611.84;;;21.30;28.68
80500;BME280;69823;54.120;-4.710;2023-05-15T07:17:32;100616.25;;;21.42;28.79
80500;BME280;69823;54.120;-4.710;2023-05-15T07:19:58;100617.72;;;21.48;28.50
80500;BME280;69823;54.120;-4.710;2023-05-15T07:22:25;100624.21;;;21.38;28.60
80500;BME280;69823;54.120;-4.710;2023-05-15T07:24:49;100621.21;;;21.29;28.68
80500;BME280;69823;54.120;-4.710;2023-05-15T07:27:15;100621.91;;;21.36;28.91
80500;BME280;69823;54.120;-4.710;2023-05-15T07:29:41;100619.27;;;21.51;28.72
80500;BME280;69823;54.120;-4.710;2023-05-15T07:32:07;100619.84;;;21.25;28.73
80500;BME280;69823;54.120;-4.710;2023-05-15T07:34:33;100619.92;;;21.98;28.22
80500;BME280;69823;54.120;-4.710;2023-05-15T07:36:59;100622.76;;;21.53;28.43
80500;BME280;69823;54.120;-4.710;2023-05-15T07:39:25;100620.39;;;21.43;28.27
80500;BME280;69823;54.120;-4.710;2023-05-15T07:41:50;100617.70;;;21.81;28.38
80500;BME280;69823;54.120;-4.710;2023-05-15T07:44:16;100624.88;;;21.76;28.18
80500;BME280;69823;54.120;-4.710;2023-05-15T07:46:42;100627.66;;;21.46;28.47
80500;BME280;69823;54.120;-4.710;2023-05-15T07:49:08;100627.72;;;21.62;28.59
80500;BME280;69823;54.120;-4.710;2023-05-15T07:51:34;100624.04;;;22.03;28.17
80500;BME280;69823;54.120;-4.710;2023-05-15T07:54:00;100625.21;;;21.54;28.73
80500;BME280;69823;54.120;-4.710;2023-05-15T07:56:26;100626.41;;;21.41;28.61
80500;BME280;69823;54.120;-4.710;2023-05-15T07:58:51;100629.73;;;21.63;28.64
80500;BME280;69823;54.120;-4.710;2023-05-15T08:01:17;100636.86;;;21.34;28.70
80500;BME280;69823;54.120;-4.710;2023-05-15T08:03:43;100638.72;;;21.38;28.94
80500;BME280;69823;54.120;-4.710;2023-05-15T08:06:09;100641.00;;;21.18;28.89
80500;BME280;69823;54.120;-4.710;2023-05-15T08:08:35;100641.30;;;21.56;28.75
80500;BME280;69823;54.120;-4.710;2023-05-15T08:11:01;100643.10;;;20.78;29.34
80500;BME280;69823;54.120;-4.710;2023-05-15T08:13:26;100645.91;;;20.84;29.63
80500;BME280;69823;54.120;-4.710;2023-05-15T08:15:52;100650.58;;;20.62;29.89
80500;BME280;69823;54.120;-4.710;2023-05-15T08:18:18;100655.37;;;20.99;29.61
80500;BME280;69823;54.120;-4.710;2023-05-15T08:20:44;100653.56;;;21.07;29.15
80500;BME280;69823;54.120;-4.710;2023-05-15T08:23:09;100656.58;;;21.70;28.72
80500;BME280;69823;54.120;-4.710;2023-05-15T08:25:35;100657.32;;;21.56;28.88
80500;BME280;69823;54.120;-4.710;2023-05-15T08:28:03;100657.39;;;22.09;28.28
80500;BME280;69823;54.120;-4.710;2023-05-15T08:30:27;100660.11;;;22.03;28.30
80500;BME280;69823;54.120;-4.710;2023-05-15T08:32:53;100655.99;;;21.65;28.45
80500;BME280;69823;54.120;-4.710;2023-05-15T08:35:19;100660.81;;;21.70;28.69
80500;BME280;69823;54.120;-4.710;2023-05-15T08:37:44;100659.51;;;21.49;28.70
80500;BME280;69823;54.120;-4.710;2023-05-15T08:40:11;100662.78;;;21.91;28.55
80500;BME280;69823;54.120;-4.710;2023-05-15T08:42:42;100660.79;;;21.85;28.39
80500;BME280;69823;54.120;-4.710;2023-05-15T08:45:03;100659.55;;;22.04;28.47
80500;BME280;69823;54.120;-4.710;2023-05-15T08:47:28;100665.40;;;22.00;28.54
80500;BME280;69823;54.120;-4.710;2023-05-15T08:49:58;100662.67;;;22.06;28.46
80500;BME280;69823;54.120;-4.710;2023-05-15T08:52:20;100664.77;;;21.99;28.55
80500;BME280;69823;54.120;-4.710;2023-05-15T08:54:45;100661.08;;;21.52;28.80
80500;BME280;69823;54.120;-4.710;2023-05-15T08:57:11;100662.37;;;21.79;28.77
80500;BME280;69823;54.120;-4.710;2023-05-15T08:59:37;100662.42;;;21.80;28.78
80500;BME280;69823;54.120;-4.710;2023-05-15T09:02:03;100665.56;;;21.53;28.83
80500;BME280;69823;54.120;-4.710;2023-05-15T09:04:29;100666.55;;;21.74;28.85
80500;BME280;69823;54.120;-4.710;2023-05-15T09:06:55;100669.71;;;21.40;29.01
80500;BME280;69823;54.120;-4.710;2023-05-15T09:09:21;100666.18;;;21.54;29.12
80500;BME280;69823;54.120;-4.710;2023-05-15T09:11:47;100667.97;;;21.46;29.26
80500;BME280;69823;54.120;-4.710;2023-05-15T09:14:12;100674.31;;;21.35;29.36
80500;BME280;69823;54.120;-4.710;2023-05-15T09:16:38;100679.05;;;21.18;29.36
80500;BME280;69823;54.120;-4.710;2023-05-15T09:19:04;100677.43;;;21.52;29.23
80500;BME280;69823;54.120;-4.710;2023-05-15T09:21:30;100681.54;;;21.29;29.50
80500;BME280;69823;54.120;-4.710;2023-05-15T09:26:21;100686.98;;;20.81;29.54
80500;BME280;69823;54.120;-4.710;2023-05-15T09:28:47;100691.07;;;21.34;29.24
80500;BME280;69823;54.120;-4.710;2023-05-15T09:31:13;100691.76;;;21.11;29.47
80500;BME280;69823;54.120;-4.710;2023-05-15T09:33:39;100693.31;;;21.45;29.39
80500;BME280;69823;54.120;-4.710;2023-05-15T09:36:05;100688.51;;;21.23;29.11
80500;BME280;69823;54.120;-4.710;2023-05-15T09:38:31;100694.64;;;21.40;29.46
80500;BME280;69823;54.120;-4.710;2023-05-15T09:41:01;100695.99;;;21.35;29.26
80500;BME280;69823;54.120;-4.710;2023-05-15T09:43:22;100696.91;;;21.40;29.27
80500;BME280;69823;54.120;-4.710;2023-05-15T09:45:47;100689.03;;;21.72;29.11
80500;BME280;69823;54.120;-4.710;2023-05-15T09:48:13;100688.36;;;21.52;29.08
80500;BME280;69823;54.120;-4.710;2023-05-15T09:50:40;100685.93;;;21.79;29.09
80500;BME280;69823;54.120;-4.710;2023-05-15T09:53:05;100689.88;;;21.66;29.24
80500;BME280;69823;54.120;-4.710;2023-05-15T09:55:31;100686.37;;;21.41;29.23
80500;BME280;69823;54.120;-4.710;2023-05-15T09:58:04;100692.00;;;21.25;29.39
80500;BME280;69823;54.120;-4.710;2023-05-15T10:00:22;100696.13;;;21.10;29.31
80500;BME280;69823;54.120;-4.710;2023-05-15T10:02:48;100700.22;;;21.20;29.54
80500;BME280;69823;54.120;-4.710;2023-05-15T10:05:14;100702.61;;;22.13;28.85
80500;BME280;69823;54.120;-4.710;2023-05-15T10:07:40;100704.25;;;21.92;28.59
80500;BME280;69823;54.120;-4.710;2023-05-15T10:10:06;100701.83;;;22.63;27.95
80500;BME280;69823;54.120;-4.710;2023-05-15T10:12:33;100703.38;;;22.79;27.68
80500;BME280;69823;54.120;-4.710;2023-05-15T10:14:58;100692.53;;;22.89;27.48
80500;BME280;69823;54.120;-4.710;2023-05-15T10:17:23;100690.25;;;22.80;27.29
80500;BME280;69823;54.120;-4.710;2023-05-15T10:19:50;100689.24;;;23.02;27.22
80500;BME280;69823;54.120;-4.710;2023-05-15T10:22:18;100689.23;;;22.51;27.41
80500;BME280;69823;54.120;-4.710;2023-05-15T10:24:44;100686.29;;;22.91;27.21
80500;BME280;69823;54.120;-4.710;2023-05-15T10:27:08;100690.03;;;22.96;27.12
80500;BME280;69823;54.120;-4.710;2023-05-15T10:29:33;100689.55;;;22.82;27.20
80500;BME280;69823;54.120;-4.710;2023-05-15T10:31:59;100685.79;;;22.24;27.78
80500;BME280;69823;54.120;-4.710;2023-05-15T10:34:24;100683.53;;;22.81;27.79
80500;BME280;69823;54.120;-4.710;2023-05-15T10:36:50;100672.17;;;22.31;28.13
80500;BME280;69823;54.120;-4.710;2023-05-15T10:39:16;100670.41;;;22.17;28.28
80500;BME280;69823;54.120;-4.710;2023-05-15T10:41:41;100661.44;;;22.16;28.14
80500;BME280;69823;54.120;-4.710;2023-05-15T10:44:07;100665.53;;;22.09;28.18
80500;BME280;69823;54.120;-4.710;2023-05-15T10:46:34;100672.26;;;22.24;27.98
80500;BME280;69823;54.120;-4.710;2023-05-15T10:48:59;100668.28;;;22.69;27.93
80500;BME280;69823;54.120;-4.710;2023-05-15T10:51:26;100677.34;;;22.47;27.96
80500;BME280;69823;54.120;-4.710;2023-05-15T10:53:51;100677.99;;;22.69;27.64
80500;BME280;69823;54.120;-4.710;2023-05-15T10:56:16;100681.90;;;22.70;27.68
80500;BME280;69823;54.120;-4.710;2023-05-15T10:58:44;100683.28;;;22.85;27.51
80500;BME280;69823;54.120;-4.710;2023-05-15T11:03:35;100684.51;;;23.21;27.13
80500;BME280;69823;54.120;-4.710;2023-05-15T11:06:06;100679.82;;;23.12;27.39
80500;BME280;69823;54.120;-4.710;2023-05-15T11:08:25;100682.57;;;22.94;27.48
80500;BME280;69823;54.120;-4.710;2023-05-15T11:10:51;100694.50;;;23.12;27.21
80500;BME280;69823;54.120;-4.710;2023-05-15T11:13:17;100689.93;;;23.03;27.36
80500;BME280;69823;54.120;-4.710;2023-05-15T11:15:43;100690.44;;;22.98;27.19
80500;BME280;69823;54.120;-4.710;2023-05-15T11:18:08;100689.59;;;23.27;27.23
80500;BME280;69823;54.120;-4.710;2023-05-15T11:20:38;100689.49;;;23.19;27.31
80500;BME280;69823;54.120;-4.710;2023-05-15T11:23:00;100684.55;;;23.04;27.04
80500;BME280;69823;54.120;-4.710;2023-05-15T11:25:28;100689.50;;;23.55;26.78
80500;BME280;69823;54.120;-4.710;2023-05-15T11:27:54;100684.83;;;23.49;26.85
80500;BME280;69823;54.120;-4.710;2023-05-15T11:30:19;100685.38;;;23.39;26.96
80500;BME280;69823;54.120;-4.710;2023-05-15T11:32:49;100681.86;;;23.39;26.95
80500;BME280;69823;54.120;-4.710;2023-05-15T11:35:10;100682.70;;;23.03;27.11
80500;BME280;69823;54.120;-4.710;2023-05-15T11:37:37;100689.17;;;23.22;27.21
80500;BME280;69823;54.120;-4.710;2023-05-15T11:40:00;100693.67;;;23.39;27.08
80500;BME280;69823;54.120;-4.710;2023-05-15T11:42:26;100693.29;;;23.54;27.08
80500;BME280;69823;54.120;-4.710;2023-05-15T11:44:52;100697.67;;;23.27;27.28
80500;BME280;69823;54.120;-4.710;2023-05-15T11:47:17;100695.88;;;23.52;26.77
80500;BME280;69823;54.120;-4.710;2023-05-15T11:49:43;100700.03;;;23.37;26.54
80500;BME280;69823;54.120;-4.710;2023-05-15T11:52:09;100701.05;;;23.44;26.60
80500;BME280;69823;54.120;-4.710;2023-05-15T11:54:35;100699.13;;;23.45;26.66
80500;BME280;69823;54.120;-4.710;2023-05-15T11:57:01;100707.83;;;23.42;26.82
80500;BME280;69823;54.120;-4.710;2023-05-15T11:59:27;100706.23;;;23.67;26.36
80500;BME280;69823;54.120;-4.710;2023-05-15T12:01:52;100701.94;;;23.58;26.35
80500;BME280;69823;54.120;-4.710;2023-05-15T12:04:18;100708.51;;;23.17;26.50
80500;BME280;69823;54.120;-4.710;2023-05-15T12:06:44;100705.18;;;22.86;26.68
80500;BME280;69823;54.120;-4.710;2023-05-15T12:09:12;100702.88;;;23.65;26.49
80500;BME280;69823;54.120;-4.710;2023-05-15T12:11:36;100706.83;;;23.49;26.43
80500;BME280;69823;54.120;-4.710;2023-05-15T12:14:01;100706.94;;;23.68;26.49
80500;BME280;69823;54.120;-4.710;2023-05-15T12:16:27;100718.20;;;23.74;26.44
80500;BME280;69823;54.120;-4.710;2023-05-15T12:18:55;100721.30;;;23.24;26.50
80500;BME280;69823;54.120;-4.710;2023-05-15T12:21:19;100725.38;;;23.27;26.75
80500;BME280;69823;54.120;-4.710;2023-05-15T12:23:49;100726.27;;;23.39;26.87
80500;BME280;69823;54.120;-4.710;2023-05-15T12:26:10;100731.82;;;23.39;26.84
80500;BME280;69823;54.120;-4.710;2023-05-15T12:28:37;100731.32;;;23.22;27.04
80500;BME280;69823;54.120;-4.710;2023-05-15T12:31:02;100734.68;;;23.32;26.98
80500;BME280;69823;54.120;-4.710;2023-05-15T12:33:28;100735.21;;;23.26;26.98
80500;BME280;69823;54.120;-4.710;2023-05-15T12:35:55;100736.40;;;22.89;27.20
80500;BME280;69823;54.120;-4.710;2023-05-15T12:38:20;100739.38;;;23.14;27.02